Terminal Aerodrome Forecast
Issued by NWS

Home | Current Version | Previous Version | Text Only | Print | Product List | Glossary On
Versions: 1 2 3 4 5 6 7 8 9 10 11 12
000
FTUS44 KEPZ 271700
TAFDMN
TAF
KDMN 271720Z 2718/2818 15005KT P6SM SCT060 SCT200
     FM272100 27010KT P6SM VCTS SCT060CB BKN200
     FM280200 29006KT P6SM SCT080
     FM281200 29005KT P6SM SKC=

USA.gov is the U.S. government's official web portal to all federal, state and local government web resources and services.